CYNR

SPECI CYNR 251512Z AUTO 07003KT 1 3/4SM -DZ BKN008 OVC011 00/M00 A2977 RMK AO2 SLP097
SPECI
LOCATION
CYNR
DATE - TIME
251512Z
WIND
070 TRUE @ 3 KNOTS
VISIBILITY
1 3/4SM
RUNWAY VISUAL RANGE
NOT REPORTED
WEATHER
DRIZZLE, NOT FREEZING, SLIGHT
CLOUDINESS
BKN008 OVC011
TEMP / DEWPOINT
0 ºC / -0 ºC
ALTIMETER
29.77 in. Hg
RECENT WEATHER
NOT REPORTED
WIND SHEAR
NOT REPORTED
REMARKS
RMK AO2 SLP097
SEA LEVEL PRESSURE: hPa

CYNR

SPECI CYNR 251510Z AUTO 06002KT 1 3/4SM -DZ SCT008 OVC011 00/M00 A2977 RMK AO2 SLP097
SPECI
LOCATION
CYNR
DATE - TIME
251510Z
WIND
060 TRUE @ 2 KNOTS
VISIBILITY
1 3/4SM
RUNWAY VISUAL RANGE
NOT REPORTED
WEATHER
DRIZZLE, NOT FREEZING, SLIGHT
CLOUDINESS
SCT008 OVC011
TEMP / DEWPOINT
0 ºC / -0 ºC
ALTIMETER
29.77 in. Hg
RECENT WEATHER
NOT REPORTED
WIND SHEAR
NOT REPORTED
REMARKS
RMK AO2 SLP097
SEA LEVEL PRESSURE: hPa

CYNR

SPECI CYNR 251507Z AUTO 06002KT 1 3/4SM -DZ OVC010 00/M00 A2977 RMK AO2 SLP097
SPECI
LOCATION
CYNR
DATE - TIME
251507Z
WIND
060 TRUE @ 2 KNOTS
VISIBILITY
1 3/4SM
RUNWAY VISUAL RANGE
NOT REPORTED
WEATHER
DRIZZLE, NOT FREEZING, SLIGHT
CLOUDINESS
OVC010
TEMP / DEWPOINT
0 ºC / -0 ºC
ALTIMETER
29.77 in. Hg
RECENT WEATHER
NOT REPORTED
WIND SHEAR
NOT REPORTED
REMARKS
RMK AO2 SLP097
SEA LEVEL PRESSURE: hPa

Your time UTC time
 
 
Weather data provided by AXYS Technologies Inc., www.axystechnologies.com
 
Station History